sensor_id;sensor_type;location;lat;lon;timestamp;temperature;humidity
16267;DHT22;8241;48.786;9.250;2023-04-15T00:01:23;6.90;99.90
16267;DHT22;8241;48.786;9.250;2023-04-15T00:03:51;7.50;99.90
16267;DHT22;8241;48.786;9.250;2023-04-15T00:06:20;6.30;99.90
16267;DHT22;8241;48.786;9.250;2023-04-15T00:08:47;6.50;99.90
16267;DHT22;8241;48.786;9.250;2023-04-15T00:11:15;6.70;99.90
16267;DHT22;8241;48.786;9.250;2023-04-15T00:13:42;6.60;99.90
16267;DHT22;8241;48.786;9.250;2023-04-15T00:16:10;6.50;99.90
16267;DHT22;8241;48.786;9.250;2023-04-15T00:18:36;6.60;99.90
16267;DHT22;8241;48.786;9.250;2023-04-15T00:21:03;6.40;99.90
16267;DHT22;8241;48.786;9.250;2023-04-15T00:23:32;6.40;99.90
16267;DHT22;8241;48.786;9.250;2023-04-15T00:25:58;6.60;99.90
16267;DHT22;8241;48.786;9.250;2023-04-15T00:28:26;6.40;99.90
16267;DHT22;8241;48.786;9.250;2023-04-15T00:30:52;6.90;99.90
16267;DHT22;8241;48.786;9.250;2023-04-15T00:33:19;6.50;99.90
16267;DHT22;8241;48.786;9.250;2023-04-15T00:35:46;7.00;99.90
16267;DHT22;8241;48.786;9.250;2023-04-15T00:38:13;6.10;99.90
16267;DHT22;8241;48.786;9.250;2023-04-15T00:40:42;6.20;99.90
16267;DHT22;8241;48.786;9.250;2023-04-15T00:43:09;6.30;99.90
16267;DHT22;8241;48.786;9.250;2023-04-15T00:45:36;6.00;99.90
16267;DHT22;8241;48.786;9.250;2023-04-15T00:48:03;6.30;99.90
16267;DHT22;8241;48.786;9.250;2023-04-15T00:50:31;6.00;99.90
16267;DHT22;8241;48.786;9.250;2023-04-15T00:52:58;6.30;99.90
16267;DHT22;8241;48.786;9.250;2023-04-15T00:55:25;6.40;99.90
16267;DHT22;8241;48.786;9.250;2023-04-15T00:57:53;6.30;99.90
16267;DHT22;8241;48.786;9.250;2023-04-15T01:00:21;6.30;99.90
16267;DHT22;8241;48.786;9.250;2023-04-15T01:02:47;6.20;99.90
16267;DHT22;8241;48.786;9.250;2023-04-15T01:05:14;6.20;99.90
16267;DHT22;8241;48.786;9.250;2023-04-15T01:07:43;6.60;99.90
16267;DHT22;8241;48.786;9.250;2023-04-15T01:10:10;6.40;99.90
16267;DHT22;8241;48.786;9.250;2023-04-15T01:12:37;6.10;99.90
16267;DHT22;8241;48.786;9.250;2023-04-15T01:15:09;6.20;99.90
16267;DHT22;8241;48.786;9.250;2023-04-15T01:17:36;6.10;99.90
16267;DHT22;8241;48.786;9.250;2023-04-15T01:20:06;5.80;99.90
16267;DHT22;8241;48.786;9.250;2023-04-15T01:22:36;6.00;99.90
16267;DHT22;8241;48.786;9.250;2023-04-15T01:25:08;6.10;99.90
16267;DHT22;8241;48.786;9.250;2023-04-15T01:27:37;5.90;99.90
16267;DHT22;8241;48.786;9.250;2023-04-15T01:30:05;5.80;99.90
16267;DHT22;8241;48.786;9.250;2023-04-15T01:32:32;5.70;99.90
16267;DHT22;8241;48.786;9.250;2023-04-15T01:35:00;5.70;99.90
16267;DHT22;8241;48.786;9.250;2023-04-15T01:37:27;5.50;99.90
16267;DHT22;8241;48.786;9.250;2023-04-15T01:39:54;5.70;99.90
16267;DHT22;8241;48.786;9.250;2023-04-15T01:42:21;5.70;99.90
16267;DHT22;8241;48.786;9.250;2023-04-15T01:44:49;5.90;99.90
16267;DHT22;8241;48.786;9.250;2023-04-15T01:47:16;5.40;99.90
16267;DHT22;8241;48.786;9.250;2023-04-15T01:49:43;5.70;99.90
16267;DHT22;8241;48.786;9.250;2023-04-15T01:52:10;6.40;99.90
16267;DHT22;8241;48.786;9.250;2023-04-15T01:54:39;5.60;99.90
16267;DHT22;8241;48.786;9.250;2023-04-15T01:57:06;5.60;99.90
16267;DHT22;8241;48.786;9.250;2023-04-15T01:59:33;5.70;99.90
16267;DHT22;8241;48.786;9.250;2023-04-15T02:02:03;5.60;99.90
16267;DHT22;8241;48.786;9.250;2023-04-15T02:04:30;5.60;99.90
16267;DHT22;8241;48.786;9.250;2023-04-15T02:06:58;5.50;99.90
16267;DHT22;8241;48.786;9.250;2023-04-15T02:09:26;5.40;99.90
16267;DHT22;8241;48.786;9.250;2023-04-15T02:11:52;5.50;99.90
16267;DHT22;8241;48.786;9.250;2023-04-15T02:14:19;5.40;99.90
16267;DHT22;8241;48.786;9.250;2023-04-15T02:16:46;5.40;99.90
16267;DHT22;8241;48.786;9.250;2023-04-15T02:19:16;5.30;99.90
16267;DHT22;8241;48.786;9.250;2023-04-15T02:21:43;5.30;99.90
16267;DHT22;8241;48.786;9.250;2023-04-15T02:24:09;5.20;99.90
16267;DHT22;8241;48.786;9.250;2023-04-15T02:26:40;5.30;99.90
16267;DHT22;8241;48.786;9.250;2023-04-15T02:29:06;5.10;99.90
16267;DHT22;8241;48.786;9.250;2023-04-15T02:31:33;5.10;99.90
16267;DHT22;8241;48.786;9.250;2023-04-15T02:34:04;4.90;99.90
16267;DHT22;8241;48.786;9.250;2023-04-15T02:36:33;5.20;99.90
16267;DHT22;8241;48.786;9.250;2023-04-15T02:39:00;4.80;99.90
16267;DHT22;8241;48.786;9.250;2023-04-15T02:41:28;4.90;99.90
16267;DHT22;8241;48.786;9.250;2023-04-15T02:43:54;5.00;99.90
16267;DHT22;8241;48.786;9.250;2023-04-15T02:46:22;4.80;99.90
16267;DHT22;8241;48.786;9.250;2023-04-15T02:48:49;4.80;99.90
16267;DHT22;8241;48.786;9.250;2023-04-15T02:51:16;4.80;99.90
16267;DHT22;8241;48.786;9.250;2023-04-15T02:53:45;4.80;99.90
16267;DHT22;8241;48.786;9.250;2023-04-15T02:56:13;4.80;99.90
16267;DHT22;8241;48.786;9.250;2023-04-15T02:58:41;5.40;99.90
16267;DHT22;8241;48.786;9.250;2023-04-15T03:01:09;4.80;99.90
16267;DHT22;8241;48.786;9.250;2023-04-15T03:03:36;4.80;99.90
16267;DHT22;8241;48.786;9.250;2023-04-15T03:06:03;4.80;99.90
16267;DHT22;8241;48.786;9.250;2023-04-15T03:08:30;4.70;99.90
16267;DHT22;8241;48.786;9.250;2023-04-15T03:10:58;4.70;99.90
16267;DHT22;8241;48.786;9.250;2023-04-15T03:13:27;4.70;99.90
16267;DHT22;8241;48.786;9.250;2023-04-15T03:15:55;4.70;99.90
16267;DHT22;8241;48.786;9.250;2023-04-15T03:18:22;4.70;99.90
16267;DHT22;8241;48.786;9.250;2023-04-15T03:20:49;4.60;99.90
16267;DHT22;8241;48.786;9.250;2023-04-15T03:23:16;4.60;99.90
16267;DHT22;8241;48.786;9.250;2023-04-15T03:25:44;5.30;99.90
16267;DHT22;8241;48.786;9.250;2023-04-15T03:28:12;4.60;99.90
16267;DHT22;8241;48.786;9.250;2023-04-15T03:30:39;4.60;99.90
16267;DHT22;8241;48.786;9.250;2023-04-15T03:33:06;5.40;99.90
16267;DHT22;8241;48.786;9.250;2023-04-15T03:35:33;4.60;99.90
16267;DHT22;8241;48.786;9.250;2023-04-15T03:38:00;4.60;99.90
16267;DHT22;8241;48.786;9.250;2023-04-15T03:40:27;4.80;99.90
16267;DHT22;8241;48.786;9.250;2023-04-15T03:42:54;4.30;99.90
16267;DHT22;8241;48.786;9.250;2023-04-15T03:45:23;4.60;99.90
16267;DHT22;8241;48.786;9.250;2023-04-15T03:47:49;5.10;99.90
16267;DHT22;8241;48.786;9.250;2023-04-15T03:50:17;5.00;99.90
16267;DHT22;8241;48.786;9.250;2023-04-15T03:52:43;4.60;99.90
16267;DHT22;8241;48.786;9.250;2023-04-15T03:55:10;4.50;99.90
16267;DHT22;8241;48.786;9.250;2023-04-15T03:57:37;5.10;99.90
16267;DHT22;8241;48.786;9.250;2023-04-15T04:00:05;4.40;99.90
16267;DHT22;8241;48.786;9.250;2023-04-15T04:02:38;4.40;99.90
16267;DHT22;8241;48.786;9.250;2023-04-15T04:05:05;4.40;99.90
16267;DHT22;8241;48.786;9.250;2023-04-15T04:07:32;4.40;99.90
16267;DHT22;8241;48.786;9.250;2023-04-15T04:09:59;4.40;99.90
16267;DHT22;8241;48.786;9.250;2023-04-15T04:12:26;5.10;99.90
16267;DHT22;8241;48.786;9.250;2023-04-15T04:14:53;4.70;99.90
16267;DHT22;8241;48.786;9.250;2023-04-15T04:17:20;4.60;99.90
16267;DHT22;8241;48.786;9.250;2023-04-15T04:19:48;4.30;99.90
16267;DHT22;8241;48.786;9.250;2023-04-15T04:22:16;4.30;99.90
16267;DHT22;8241;48.786;9.250;2023-04-15T04:24:43;4.30;99.90
16267;DHT22;8241;48.786;9.250;2023-04-15T04:27:09;4.40;99.90
16267;DHT22;8241;48.786;9.250;2023-04-15T04:29:36;4.60;99.90
16267;DHT22;8241;48.786;9.250;2023-04-15T04:32:03;3.40;99.90
16267;DHT22;8241;48.786;9.250;2023-04-15T04:34:30;4.30;99.90
16267;DHT22;8241;48.786;9.250;2023-04-15T04:36:58;4.20;99.90
16267;DHT22;8241;48.786;9.250;2023-04-15T04:39:25;4.20;99.90
16267;DHT22;8241;48.786;9.250;2023-04-15T04:41:52;4.90;99.90
16267;DHT22;8241;48.786;9.250;2023-04-15T04:44:20;4.20;99.90
16267;DHT22;8241;48.786;9.250;2023-04-15T04:46:46;4.20;99.90
16267;DHT22;8241;48.786;9.250;2023-04-15T04:49:13;4.10;99.90
16267;DHT22;8241;48.786;9.250;2023-04-15T04:51:40;4.20;99.90
16267;DHT22;8241;48.786;9.250;2023-04-15T04:54:08;4.00;99.90
16267;DHT22;8241;48.786;9.250;2023-04-15T04:56:35;4.00;99.90
16267;DHT22;8241;48.786;9.250;2023-04-15T04:59:04;4.00;99.90
16267;DHT22;8241;48.786;9.250;2023-04-15T05:01:31;4.00;99.90
16267;DHT22;8241;48.786;9.250;2023-04-15T05:03:58;4.30;99.90
16267;DHT22;8241;48.786;9.250;2023-04-15T05:06:25;4.70;99.90
16267;DHT22;8241;48.786;9.250;2023-04-15T05:08:52;4.70;99.90
16267;DHT22;8241;48.786;9.250;2023-04-15T05:11:20;4.50;99.90
16267;DHT22;8241;48.786;9.250;2023-04-15T05:13:47;4.20;99.90
16267;DHT22;8241;48.786;9.250;2023-04-15T05:16:15;3.90;99.90
16267;DHT22;8241;48.786;9.250;2023-04-15T05:18:42;4.40;99.90
16267;DHT22;8241;48.786;9.250;2023-04-15T05:21:09;3.90;99.90
16267;DHT22;8241;48.786;9.250;2023-04-15T05:23:36;4.10;99.90
16267;DHT22;8241;48.786;9.250;2023-04-15T05:26:03;3.80;99.90
16267;DHT22;8241;48.786;9.250;2023-04-15T05:28:31;3.70;99.90
16267;DHT22;8241;48.786;9.250;2023-04-15T05:30:58;3.80;99.90
16267;DHT22;8241;48.786;9.250;2023-04-15T05:33:25;3.80;99.90
16267;DHT22;8241;48.786;9.250;2023-04-15T05:35:52;3.80;99.90
16267;DHT22;8241;48.786;9.250;2023-04-15T05:38:19;3.80;99.90
16267;DHT22;8241;48.786;9.250;2023-04-15T05:40:46;3.80;99.90
16267;DHT22;8241;48.786;9.250;2023-04-15T05:43:13;3.90;99.90
16267;DHT22;8241;48.786;9.250;2023-04-15T05:45:41;3.90;99.90
16267;DHT22;8241;48.786;9.250;2023-04-15T05:48:08;3.90;99.90
16267;DHT22;8241;48.786;9.250;2023-04-15T05:50:35;3.90;99.90
16267;DHT22;8241;48.786;9.250;2023-04-15T05:53:02;3.90;99.90
16267;DHT22;8241;48.786;9.250;2023-04-15T05:55:29;4.00;99.90
16267;DHT22;8241;48.786;9.250;2023-04-15T05:57:56;3.90;99.90
16267;DHT22;8241;48.786;9.250;2023-04-15T06:00:23;4.00;99.90
16267;DHT22;8241;48.786;9.250;2023-04-15T06:02:51;4.00;99.90
16267;DHT22;8241;48.786;9.250;2023-04-15T06:05:19;4.80;99.90
16267;DHT22;8241;48.786;9.250;2023-04-15T06:07:46;4.10;99.90
16267;DHT22;8241;48.786;9.250;2023-04-15T06:10:14;5.10;99.90
16267;DHT22;8241;48.786;9.250;2023-04-15T06:12:41;4.20;99.90
16267;DHT22;8241;48.786;9.250;2023-04-15T06:15:08;4.30;99.90
16267;DHT22;8241;48.786;9.250;2023-04-15T06:17:35;4.40;99.90
16267;DHT22;8241;48.786;9.250;2023-04-15T06:20:04;4.50;99.90
16267;DHT22;8241;48.786;9.250;2023-04-15T06:22:31;4.70;99.90
16267;DHT22;8241;48.786;9.250;2023-04-15T06:24:58;4.80;99.90
16267;DHT22;8241;48.786;9.250;2023-04-15T06:27:25;5.00;99.90
16267;DHT22;8241;48.786;9.250;2023-04-15T06:29:52;5.50;99.90
16267;DHT22;8241;48.786;9.250;2023-04-15T06:32:19;5.40;99.90
16267;DHT22;8241;48.786;9.250;2023-04-15T06:34:45;5.60;99.90
16267;DHT22;8241;48.786;9.250;2023-04-15T06:37:13;5.80;99.90
16267;DHT22;8241;48.786;9.250;2023-04-15T06:39:41;6.30;99.90
16267;DHT22;8241;48.786;9.250;2023-04-15T06:42:09;6.60;99.90
16267;DHT22;8241;48.786;9.250;2023-04-15T06:44:36;6.80;99.90
16267;DHT22;8241;48.786;9.250;2023-04-15T06:47:03;7.30;99.90
16267;DHT22;8241;48.786;9.250;2023-04-15T06:49:30;7.70;99.90
16267;DHT22;8241;48.786;9.250;2023-04-15T06:51:58;7.90;99.90
16267;DHT22;8241;48.786;9.250;2023-04-15T06:54:26;8.30;99.90
16267;DHT22;8241;48.786;9.250;2023-04-15T06:56:53;8.60;99.60
16267;DHT22;8241;48.786;9.250;2023-04-15T06:59:19;8.80;98.70
16267;DHT22;8241;48.786;9.250;2023-04-15T07:01:46;8.90;98.30
16267;DHT22;8241;48.786;9.250;2023-04-15T07:04:13;8.90;98.10
16267;DHT22;8241;48.786;9.250;2023-04-15T07:06:40;8.80;98.00
16267;DHT22;8241;48.786;9.250;2023-04-15T07:09:07;8.60;98.40
16267;DHT22;8241;48.786;9.250;2023-04-15T07:11:35;8.40;99.20
16267;DHT22;8241;48.786;9.250;2023-04-15T07:14:02;8.20;99.40
16267;DHT22;8241;48.786;9.250;2023-04-15T07:16:29;8.10;99.80
16267;DHT22;8241;48.786;9.250;2023-04-15T07:18:58;8.00;99.90
16267;DHT22;8241;48.786;9.250;2023-04-15T07:21:25;7.80;99.90
16267;DHT22;8241;48.786;9.250;2023-04-15T07:23:52;7.60;99.90
16267;DHT22;8241;48.786;9.250;2023-04-15T07:26:19;7.40;99.90
16267;DHT22;8241;48.786;9.250;2023-04-15T07:28:47;7.30;99.90
16267;DHT22;8241;48.786;9.250;2023-04-15T07:31:14;7.20;99.90
16267;DHT22;8241;48.786;9.250;2023-04-15T07:33:42;7.20;99.90
16267;DHT22;8241;48.786;9.250;2023-04-15T07:36:08;7.20;99.90
16267;DHT22;8241;48.786;9.250;2023-04-15T07:38:35;7.30;99.90
16267;DHT22;8241;48.786;9.250;2023-04-15T07:41:02;7.40;99.90
16267;DHT22;8241;48.786;9.250;2023-04-15T07:43:29;7.70;99.90
16267;DHT22;8241;48.786;9.250;2023-04-15T07:45:57;7.90;99.90
16267;DHT22;8241;48.786;9.250;2023-04-15T07:48:24;8.20;99.90
16267;DHT22;8241;48.786;9.250;2023-04-15T07:50:51;8.50;99.60
16267;DHT22;8241;48.786;9.250;2023-04-15T07:53:18;8.70;98.90
16267;DHT22;8241;48.786;9.250;2023-04-15T07:55:45;9.00;98.40
16267;DHT22;8241;48.786;9.250;2023-04-15T07:58:11;9.30;97.70
16267;DHT22;8241;48.786;9.250;2023-04-15T08:00:38;9.50;97.30
16267;DHT22;8241;48.786;9.250;2023-04-15T08:03:06;9.70;96.70
16267;DHT22;8241;48.786;9.250;2023-04-15T08:05:34;9.90;96.50
16267;DHT22;8241;48.786;9.250;2023-04-15T08:08:01;10.20;96.20
16267;DHT22;8241;48.786;9.250;2023-04-15T08:10:28;10.60;95.40
16267;DHT22;8241;48.786;9.250;2023-04-15T08:12:55;10.90;94.70
16267;DHT22;8241;48.786;9.250;2023-04-15T08:15:22;11.10;94.40
16267;DHT22;8241;48.786;9.250;2023-04-15T08:17:48;11.20;94.30
16267;DHT22;8241;48.786;9.250;2023-04-15T08:20:16;11.60;93.80
16267;DHT22;8241;48.786;9.250;2023-04-15T08:22:44;12.00;93.00
16267;DHT22;8241;48.786;9.250;2023-04-15T08:25:10;12.20;92.50
16267;DHT22;8241;48.786;9.250;2023-04-15T08:27:37;12.20;92.20
16267;DHT22;8241;48.786;9.250;2023-04-15T08:30:04;12.20;92.40
16267;DHT22;8241;48.786;9.250;2023-04-15T08:32:31;12.40;92.40
16267;DHT22;8241;48.786;9.250;2023-04-15T08:34:58;12.90;91.70
16267;DHT22;8241;48.786;9.250;2023-04-15T08:37:27;13.30;90.50
16267;DHT22;8241;48.786;9.250;2023-04-15T08:39:53;13.90;90.10
16267;DHT22;8241;48.786;9.250;2023-04-15T08:42:22;14.40;87.90
16267;DHT22;8241;48.786;9.250;2023-04-15T08:44:49;14.80;86.50
16267;DHT22;8241;48.786;9.250;2023-04-15T08:47:16;15.30;83.60
16267;DHT22;8241;48.786;9.250;2023-04-15T08:49:46;15.70;83.40
16267;DHT22;8241;48.786;9.250;2023-04-15T08:52:18;16.10;82.40
16267;DHT22;8241;48.786;9.250;2023-04-15T08:54:46;16.40;81.90
16267;DHT22;8241;48.786;9.250;2023-04-15T08:57:13;16.70;81.30
16267;DHT22;8241;48.786;9.250;2023-04-15T08:59:40;17.30;78.80
16267;DHT22;8241;48.786;9.250;2023-04-15T09:02:07;17.50;77.30
16267;DHT22;8241;48.786;9.250;2023-04-15T09:04:34;17.60;81.80
16267;DHT22;8241;48.786;9.250;2023-04-15T09:07:01;17.70;77.30
16267;DHT22;8241;48.786;9.250;2023-04-15T09:09:29;17.80;82.30
16267;DHT22;8241;48.786;9.250;2023-04-15T09:11:57;18.20;80.70
16267;DHT22;8241;48.786;9.250;2023-04-15T09:14:24;18.40;80.50
16267;DHT22;8241;48.786;9.250;2023-04-15T09:16:57;18.20;79.30
16267;DHT22;8241;48.786;9.250;2023-04-15T09:19:24;18.20;79.90
16267;DHT22;8241;48.786;9.250;2023-04-15T09:21:52;18.30;80.30
16267;DHT22;8241;48.786;9.250;2023-04-15T09:24:19;18.10;81.20
16267;DHT22;8241;48.786;9.250;2023-04-15T09:26:46;17.90;81.70
16267;DHT22;8241;48.786;9.250;2023-04-15T09:29:14;17.80;84.40
16267;DHT22;8241;48.786;9.250;2023-04-15T09:31:42;17.90;83.90
16267;DHT22;8241;48.786;9.250;2023-04-15T09:34:09;18.10;81.90
16267;DHT22;8241;48.786;9.250;2023-04-15T09:36:53;18.20;83.40
16267;DHT22;8241;48.786;9.250;2023-04-15T09:39:20;18.40;83.40
16267;DHT22;8241;48.786;9.250;2023-04-15T09:41:52;18.20;82.10
16267;DHT22;8241;48.786;9.250;2023-04-15T09:44:30;18.10;84.40
16267;DHT22;8241;48.786;9.250;2023-04-15T09:46:57;17.90;86.40
16267;DHT22;8241;48.786;9.250;2023-04-15T09:49:24;17.80;84.40
16267;DHT22;8241;48.786;9.250;2023-04-15T09:51:50;17.50;82.70
16267;DHT22;8241;48.786;9.250;2023-04-15T09:54:23;17.40;84.20
16267;DHT22;8241;48.786;9.250;2023-04-15T09:56:49;17.20;83.10
16267;DHT22;8241;48.786;9.250;2023-04-15T09:59:16;17.00;83.80
16267;DHT22;8241;48.786;9.250;2023-04-15T10:01:44;16.90;84.30
16267;DHT22;8241;48.786;9.250;2023-04-15T10:04:13;16.80;85.50
16267;DHT22;8241;48.786;9.250;2023-04-15T10:06:41;16.60;84.80
16267;DHT22;8241;48.786;9.250;2023-04-15T10:09:08;16.50;84.40
16267;DHT22;8241;48.786;9.250;2023-04-15T10:11:35;16.50;83.90
16267;DHT22;8241;48.786;9.250;2023-04-15T10:14:02;16.30;83.00
16267;DHT22;8241;48.786;9.250;2023-04-15T10:16:29;16.20;85.30
16267;DHT22;8241;48.786;9.250;2023-04-15T10:19:00;16.10;85.70
16267;DHT22;8241;48.786;9.250;2023-04-15T10:21:27;16.10;86.40
16267;DHT22;8241;48.786;9.250;2023-04-15T10:23:57;16.20;85.40
16267;DHT22;8241;48.786;9.250;2023-04-15T10:26:24;16.40;84.30
16267;DHT22;8241;48.786;9.250;2023-04-15T10:28:52;16.60;84.90
16267;DHT22;8241;48.786;9.250;2023-04-15T10:31:19;16.80;86.20
16267;DHT22;8241;48.786;9.250;2023-04-15T10:33:46;16.90;84.80
16267;DHT22;8241;48.786;9.250;2023-04-15T10:36:18;17.20;84.60
16267;DHT22;8241;48.786;9.250;2023-04-15T10:38:45;17.20;81.70
16267;DHT22;8241;48.786;9.250;2023-04-15T10:41:15;17.40;83.10
16267;DHT22;8241;48.786;9.250;2023-04-15T10:43:44;17.10;80.10
16267;DHT22;8241;48.786;9.250;2023-04-15T10:46:12;16.90;79.60
16267;DHT22;8241;48.786;9.250;2023-04-15T10:48:45;16.80;80.20
16267;DHT22;8241;48.786;9.250;2023-04-15T10:51:12;17.50;79.50
16267;DHT22;8241;48.786;9.250;2023-04-15T10:53:42;16.50;79.70
16267;DHT22;8241;48.786;9.250;2023-04-15T10:56:08;16.50;79.60
16267;DHT22;8241;48.786;9.250;2023-04-15T10:58:39;16.60;81.40
16267;DHT22;8241;48.786;9.250;2023-04-15T11:01:06;16.70;80.70
16267;DHT22;8241;48.786;9.250;2023-04-15T11:03:35;16.90;81.30
16267;DHT22;8241;48.786;9.250;2023-04-15T11:06:03;17.00;80.00
16267;DHT22;8241;48.786;9.250;2023-04-15T11:11:18;17.10;79.00
16267;DHT22;8241;48.786;9.250;2023-04-15T11:13:46;17.10;78.00
16267;DHT22;8241;48.786;9.250;2023-04-15T11:16:14;17.00;78.60
16267;DHT22;8241;48.786;9.250;2023-04-15T11:18:41;17.00;80.50
16267;DHT22;8241;48.786;9.250;2023-04-15T11:21:19;16.90;77.10
16267;DHT22;8241;48.786;9.250;2023-04-15T11:23:49;16.80;78.40
16267;DHT22;8241;48.786;9.250;2023-04-15T11:26:18;16.80;79.90
16267;DHT22;8241;48.786;9.250;2023-04-15T11:28:45;16.90;78.10
16267;DHT22;8241;48.786;9.250;2023-04-15T11:31:12;16.90;79.10
16267;DHT22;8241;48.786;9.250;2023-04-15T11:33:46;17.00;79.70
16267;DHT22;8241;48.786;9.250;2023-04-15T11:36:13;17.00;78.40
16267;DHT22;8241;48.786;9.250;2023-04-15T11:38:43;16.90;79.70
16267;DHT22;8241;48.786;9.250;2023-04-15T11:41:12;17.40;79.50
16267;DHT22;8241;48.786;9.250;2023-04-15T11:43:40;16.50;80.40
16267;DHT22;8241;48.786;9.250;2023-04-15T11:46:07;16.70;81.10
16267;DHT22;8241;48.786;9.250;2023-04-15T11:48:34;16.60;82.20
16267;DHT22;8241;48.786;9.250;2023-04-15T11:51:02;16.50;82.60
16267;DHT22;8241;48.786;9.250;2023-04-15T11:53:36;16.20;84.10
16267;DHT22;8241;48.786;9.250;2023-04-15T11:56:04;16.00;84.30
16267;DHT22;8241;48.786;9.250;2023-04-15T11:58:32;15.80;86.00
16267;DHT22;8241;48.786;9.250;2023-04-15T12:01:01;15.50;86.70
16267;DHT22;8241;48.786;9.250;2023-04-15T12:03:28;15.30;86.80
16267;DHT22;8241;48.786;9.250;2023-04-15T12:06:05;15.50;87.20
16267;DHT22;8241;48.786;9.250;2023-04-15T12:08:48;15.10;86.10
16267;DHT22;8241;48.786;9.250;2023-04-15T12:11:15;15.10;85.40
16267;DHT22;8241;48.786;9.250;2023-04-15T12:13:42;15.20;85.60
16267;DHT22;8241;48.786;9.250;2023-04-15T12:16:11;15.30;84.90
16267;DHT22;8241;48.786;9.250;2023-04-15T12:18:37;15.20;83.70
16267;DHT22;8241;48.786;9.250;2023-04-15T12:21:08;15.30;84.70
16267;DHT22;8241;48.786;9.250;2023-04-15T12:23:35;15.20;83.40
16267;DHT22;8241;48.786;9.250;2023-04-15T12:26:03;15.00;82.30
16267;DHT22;8241;48.786;9.250;2023-04-15T12:28:33;14.80;82.80
16267;DHT22;8241;48.786;9.250;2023-04-15T12:31:00;14.60;86.60
16267;DHT22;8241;48.786;9.250;2023-04-15T12:33:33;14.50;91.00
16267;DHT22;8241;48.786;9.250;2023-04-15T12:36:00;14.20;91.60
16267;DHT22;8241;48.786;9.250;2023-04-15T12:38:27;13.90;93.00
16267;DHT22;8241;48.786;9.250;2023-04-15T12:40:54;12.60;95.30
16267;DHT22;8241;48.786;9.250;2023-04-15T12:43:21;13.10;97.30
16267;DHT22;8241;48.786;9.250;2023-04-15T12:45:48;12.70;98.50
16267;DHT22;8241;48.786;9.250;2023-04-15T12:48:14;12.40;99.30
16267;DHT22;8241;48.786;9.250;2023-04-15T12:50:43;12.80;99.90
16267;DHT22;8241;48.786;9.250;2023-04-15T12:53:09;12.00;99.90
16267;DHT22;8241;48.786;9.250;2023-04-15T12:55:37;11.60;99.90
16267;DHT22;8241;48.786;9.250;2023-04-15T12:58:04;11.00;99.90
16267;DHT22;8241;48.786;9.250;2023-04-15T13:00:32;11.20;99.90
16267;DHT22;8241;48.786;9.250;2023-04-15T13:02:59;11.20;99.90
16267;DHT22;8241;48.786;9.250;2023-04-15T13:05:26;11.00;99.90
16267;DHT22;8241;48.786;9.250;2023-04-15T13:07:55;11.10;99.90
16267;DHT22;8241;48.786;9.250;2023-04-15T13:10:21;11.20;99.90
16267;DHT22;8241;48.786;9.250;2023-04-15T13:12:48;11.30;99.90
16267;DHT22;8241;48.786;9.250;2023-04-15T13:15:17;11.40;99.90
16267;DHT22;8241;48.786;9.250;2023-04-15T13:17:45;11.50;99.90
16267;DHT22;8241;48.786;9.250;2023-04-15T13:20:12;11.60;99.50
16267;DHT22;8241;48.786;9.250;2023-04-15T13:22:39;11.70;99.50
16267;DHT22;8241;48.786;9.250;2023-04-15T13:25:08;11.80;98.00
16267;DHT22;8241;48.786;9.250;2023-04-15T13:27:36;11.90;98.20
16267;DHT22;8241;48.786;9.250;2023-04-15T13:30:03;12.20;98.50
16267;DHT22;8241;48.786;9.250;2023-04-15T13:32:30;12.20;96.50
16267;DHT22;8241;48.786;9.250;2023-04-15T13:34:56;12.20;95.70
16267;DHT22;8241;48.786;9.250;2023-04-15T13:37:25;12.50;95.80
16267;DHT22;8241;48.786;9.250;2023-04-15T13:39:51;12.60;96.20
16267;DHT22;8241;48.786;9.250;2023-04-15T13:42:20;12.80;95.40
16267;DHT22;8241;48.786;9.250;2023-04-15T13:44:46;12.90;95.20
16267;DHT22;8241;48.786;9.250;2023-04-15T13:47:13;13.20;94.80
16267;DHT22;8241;48.786;9.250;2023-04-15T13:49:40;13.20;93.20
16267;DHT22;8241;48.786;9.250;2023-04-15T13:52:07;13.10;92.00
16267;DHT22;8241;48.786;9.250;2023-04-15T13:54:34;13.20;91.00
16267;DHT22;8241;48.786;9.250;2023-04-15T13:57:01;13.20;91.20
16267;DHT22;8241;48.786;9.250;2023-04-15T13:59:31;13.30;91.30
16267;DHT22;8241;48.786;9.250;2023-04-15T14:01:58;13.30;90.90
16267;DHT22;8241;48.786;9.250;2023-04-15T14:04:25;13.30;88.80
16267;DHT22;8241;48.786;9.250;2023-04-15T14:06:55;13.40;87.90
16267;DHT22;8241;48.786;9.250;2023-04-15T14:09:22;13.30;84.90
16267;DHT22;8241;48.786;9.250;2023-04-15T14:11:49;13.30;84.70
16267;DHT22;8241;48.786;9.250;2023-04-15T14:14:16;13.30;85.10
16267;DHT22;8241;48.786;9.250;2023-04-15T14:16:45;13.20;84.30
16267;DHT22;8241;48.786;9.250;2023-04-15T14:19:12;13.30;83.20
16267;DHT22;8241;48.786;9.250;2023-04-15T14:21:39;13.20;83.50
16267;DHT22;8241;48.786;9.250;2023-04-15T14:24:06;13.20;85.10
16267;DHT22;8241;48.786;9.250;2023-04-15T14:26:33;13.20;83.80
16267;DHT22;8241;48.786;9.250;2023-04-15T14:29:00;13.10;82.50
16267;DHT22;8241;48.786;9.250;2023-04-15T14:31:27;13.20;83.10
16267;DHT22;8241;48.786;9.250;2023-04-15T14:33:55;13.20;82.60
16267;DHT22;8241;48.786;9.250;2023-04-15T14:36:22;13.20;82.70
16267;DHT22;8241;48.786;9.250;2023-04-15T14:38:49;13.10;84.80
16267;DHT22;8241;48.786;9.250;2023-04-15T14:41:16;13.10;85.50
16267;DHT22;8241;48.786;9.250;2023-04-15T14:43:47;13.10;86.70
16267;DHT22;8241;48.786;9.250;2023-04-15T14:46:14;12.80;87.20
16267;DHT22;8241;48.786;9.250;2023-04-15T14:48:41;13.00;87.00
16267;DHT22;8241;48.786;9.250;2023-04-15T14:51:09;13.00;86.00
16267;DHT22;8241;48.786;9.250;2023-04-15T14:53:37;13.50;86.30
16267;DHT22;8241;48.786;9.250;2023-04-15T14:56:04;12.90;87.70
16267;DHT22;8241;48.786;9.250;2023-04-15T14:58:31;12.80;86.80
16267;DHT22;8241;48.786;9.250;2023-04-15T15:00:57;13.00;85.80
16267;DHT22;8241;48.786;9.250;2023-04-15T15:03:24;12.60;86.10
16267;DHT22;8241;48.786;9.250;2023-04-15T15:05:51;13.10;87.00
16267;DHT22;8241;48.786;9.250;2023-04-15T15:08:20;12.50;87.50
16267;DHT22;8241;48.786;9.250;2023-04-15T15:10:47;13.40;87.50
16267;DHT22;8241;48.786;9.250;2023-04-15T15:13:13;12.40;88.50
16267;DHT22;8241;48.786;9.250;2023-04-15T15:15:40;12.30;89.30
16267;DHT22;8241;48.786;9.250;2023-04-15T15:18:07;12.20;89.60
16267;DHT22;8241;48.786;9.250;2023-04-15T15:20:34;12.80;90.50
16267;DHT22;8241;48.786;9.250;2023-04-15T15:23:01;12.10;90.40
16267;DHT22;8241;48.786;9.250;2023-04-15T15:25:29;12.50;90.50
16267;DHT22;8241;48.786;9.250;2023-04-15T15:27:56;12.00;89.90
16267;DHT22;8241;48.786;9.250;2023-04-15T15:30:23;11.90;90.40
16267;DHT22;8241;48.786;9.250;2023-04-15T15:32:50;12.70;90.70
16267;DHT22;8241;48.786;9.250;2023-04-15T15:35:17;11.90;90.90
16267;DHT22;8241;48.786;9.250;2023-04-15T15:37:44;12.40;91.50
16267;DHT22;8241;48.786;9.250;2023-04-15T15:40:11;11.70;91.10
16267;DHT22;8241;48.786;9.250;2023-04-15T15:42:39;11.70;92.00
16267;DHT22;8241;48.786;9.250;2023-04-15T15:45:07;11.70;92.30
16267;DHT22;8241;48.786;9.250;2023-04-15T15:47:34;11.70;93.50
16267;DHT22;8241;48.786;9.250;2023-04-15T15:50:02;11.60;93.70
16267;DHT22;8241;48.786;9.250;2023-04-15T15:52:29;11.60;93.50
16267;DHT22;8241;48.786;9.250;2023-04-15T15:54:56;11.60;93.50
16267;DHT22;8241;48.786;9.250;2023-04-15T15:57:23;11.50;93.30
16267;DHT22;8241;48.786;9.250;2023-04-15T15:59:52;11.60;93.40